METAR Data
IDs: Format: Raw Decoded Include TAF

Data at: 0122 UTC 20 Jan 2022

KANE 200045Z 29013G18KT 10SM CLR M16/M22 A3050